Time;durP1;ratioP1;P1;durP2;ratioP2;P2;SDS_P1;SDS_P2;PMS_P1;PMS_P2;Temp;Humidity;BMP_temperature;BMP_pressure;BME280_temperature;BME280_humidity;BME280_pressure;Samples;Min_cycle;Max_cycle;Signal;HPM_P1;HPM_P2
2023/01/28 00:11:03;;;;;;;16.70;7.80;;;;;;;1.93;82.50;101322.47;682413;1260;138934;-81
2023/01/28 00:26:11;;;;;;;21.80;10.40;;;;;;;1.89;82.74;101319.66;682521;1265;139553;-81
2023/01/28 00:41:17;;;;;;;18.80;8.50;;;;;;;1.80;83.38;101312.88;682462;1260;139174;-81
2023/01/28 00:56:21;;;;;;;20.70;8.50;;;;;;;1.80;82.77;101309.27;682288;1265;140148;-81
2023/01/28 01:11:25;;;;;;;13.10;6.90;;;;;;;1.80;82.62;101309.26;682475;1263;140488;-81
2023/01/28 01:26:29;;;;;;;15.80;7.70;;;;;;;1.80;82.92;101314.10;682273;1263;140236;-81
2023/01/28 01:41:32;;;;;;;14.90;6.80;;;;;;;1.77;82.69;101301.80;682419;1265;138960;-82
2023/01/28 01:56:41;;;;;;;16.00;7.80;;;;;;;1.74;82.97;101312.58;682235;1265;139260;-81
2023/01/28 02:11:45;;;;;;;17.70;9.20;;;;;;;1.71;82.50;101303.56;682315;1260;139175;-81
2023/01/28 02:27:06;;;;;;;21.10;9.80;;;;;;;1.75;82.42;101290.30;682325;1263;139534;-81
2023/01/28 02:42:16;;;;;;;11.60;7.30;;;;;;;1.71;81.93;101290.95;682115;1265;138992;-81
2023/01/28 02:57:37;;;;;;;12.40;6.60;;;;;;;1.70;82.14;101287.02;682336;1260;139195;-81
2023/01/28 03:43:34;;;;;;;6.30;3.80;;;;;;;1.58;81.42;101277.25;682263;1265;139288;-82
2023/01/28 03:58:55;;;;;;;7.00;4.80;;;;;;;1.63;81.23;101280.38;682156;1262;138854;-82
2023/01/28 04:13:59;;;;;;;18.90;9.70;;;;;;;1.62;80.92;101293.66;682079;1265;139165;-82
2023/01/28 04:29:09;;;;;;;21.00;8.50;;;;;;;1.63;80.84;101296.22;682231;1266;139615;-82
2023/01/28 04:44:16;;;;;;;36.00;12.90;;;;;;;1.70;81.09;101285.13;682072;1264;139242;-81
2023/01/28 04:59:45;;;;;;;16.60;8.40;;;;;;;1.75;80.95;101293.42;682074;1264;139967;-81
2023/01/28 05:14:50;;;;;;;18.00;8.00;;;;;;;1.82;80.76;101303.84;682462;1263;139313;-81
2023/01/28 05:29:55;;;;;;;17.60;8.00;;;;;;;1.81;80.60;101312.55;682321;1261;139287;-82
2023/01/28 05:44:59;;;;;;;25.20;10.10;;;;;;;1.81;81.04;101314.06;682286;1272;139985;-81
2023/01/28 06:00:15;;;;;;;59.50;26.20;;;;;;;1.81;81.31;101325.11;682125;1261;139368;-81
2023/01/28 06:15:20;;;;;;;75.70;22.70;;;;;;;1.82;81.00;101326.27;682260;1261;139127;-82
2023/01/28 06:30:36;;;;;;;39.20;16.40;;;;;;;1.83;81.07;101338.49;682030;1263;139099;-82
2023/01/28 06:45:39;;;;;;;30.80;14.10;;;;;;;1.83;80.74;101349.38;682203;1260;139064;-81
2023/01/28 07:00:43;;;;;;;81.30;28.60;;;;;;;1.81;80.91;101359.09;682074;1260;139824;-81
2023/01/28 07:15:47;;;;;;;50.50;17.20;;;;;;;1.88;80.62;101361.46;682320;1260;139728;-82
2023/01/28 07:30:51;;;;;;;97.60;35.30;;;;;;;1.96;80.65;101363.60;682110;1260;139460;-82
2023/01/28 07:45:59;;;;;;;91.40;33.80;;;;;;;1.96;80.48;101365.66;682213;1265;139566;-83
2023/01/28 08:01:03;;;;;;;49.80;26.10;;;;;;;1.99;80.81;101368.64;682125;1260;139186;-83
2023/01/28 08:16:06;;;;;;;67.30;37.40;;;;;;;2.09;80.45;101369.37;681928;1260;139147;-82
2023/01/28 08:31:10;;;;;;;31.80;15.60;;;;;;;2.22;80.57;101371.84;681851;1262;139789;-82
2023/01/28 08:46:14;;;;;;;350.20;122.40;;;;;;;2.36;80.11;101379.28;682133;1262;139477;-82
2023/01/28 09:01:17;;;;;;;323.60;101.20;;;;;;;2.49;79.51;101375.36;682080;1260;139803;-80
2023/01/28 09:16:21;;;;;;;76.10;30.50;;;;;;;2.63;79.27;101363.94;682635;1260;139535;-80
2023/01/28 09:31:24;;;;;;;36.00;16.30;;;;;;;2.71;78.59;101361.75;682307;1260;138997;-80
2023/01/28 09:46:32;;;;;;;48.80;19.40;;;;;;;2.92;78.68;101356.81;682318;1260;139028;-80
2023/01/28 10:01:51;;;;;;;28.70;14.00;;;;;;;3.11;78.92;101356.58;682161;1263;139295;-81
2023/01/28 10:17:25;;;;;;;60.80;25.80;;;;;;;3.26;77.82;101352.90;682248;1263;139626;-80
2023/01/28 10:32:34;;;;;;;19.70;9.90;;;;;;;3.40;77.70;101359.90;682241;1260;139273;-80
2023/01/28 10:47:42;;;;;;;32.30;12.80;;;;;;;3.51;77.00;101360.52;682396;1264;139140;-82
2023/01/28 11:02:48;;;;;;;17.60;8.60;;;;;;;3.54;76.89;101358.14;682274;1264;139282;-81
2023/01/28 11:18:06;;;;;;;24.80;13.10;;;;;;;3.61;76.76;101349.38;682234;1264;139222;-81
2023/01/28 11:33:17;;;;;;;22.70;11.30;;;;;;;3.75;76.11;101333.73;682385;1263;139744;-81
2023/01/28 11:48:39;;;;;;;65.90;22.20;;;;;;;3.69;74.82;101340.20;682242;1260;139053;-81
2023/01/28 12:04:14;;;;;;;33.00;14.70;;;;;;;3.74;74.38;101323.57;682152;1265;139111;-81
2023/01/28 12:19:32;;;;;;;30.60;12.70;;;;;;;3.74;74.34;101321.80;682401;1260;139693;-81
2023/01/28 12:35:09;;;;;;;30.50;12.80;;;;;;;3.63;74.15;101313.30;682167;1270;139190;-81
2023/01/28 12:50:24;;;;;;;34.30;13.10;;;;;;;3.69;74.13;101296.80;682143;1265;139395;-81
2023/01/28 13:05:36;;;;;;;43.70;16.80;;;;;;;3.57;73.32;101299.55;682129;1262;139101;-79
2023/01/28 13:20:47;;;;;;;146.70;54.50;;;;;;;3.56;73.48;101294.76;682406;1263;139735;-80
2023/01/28 13:35:54;;;;;;;72.20;34.50;;;;;;;3.29;73.19;101290.52;682410;1263;140847;-80
2023/01/28 13:50:59;;;;;;;33.90;19.30;;;;;;;3.14;73.37;101290.59;682526;1263;139065;-81
2023/01/28 14:06:03;;;;;;;48.00;20.90;;;;;;;2.89;72.44;101294.70;682414;1276;139440;-80
2023/01/28 14:21:16;;;;;;;19.40;9.40;;;;;;;2.69;72.23;101301.87;682357;1275;139223;-80
2023/01/28 14:36:19;;;;;;;24.80;11.40;;;;;;;2.76;72.18;101306.95;682410;1264;138817;-79
2023/01/28 14:51:41;;;;;;;89.20;33.70;;;;;;;2.63;71.89;101306.25;682061;1262;139809;-80
2023/01/28 15:06:47;;;;;;;108.70;42.50;;;;;;;2.42;71.00;101296.17;682268;1262;139264;-80
2023/01/28 15:22:03;;;;;;;60.70;21.40;;;;;;;2.15;70.30;101287.86;682431;1262;139833;-80
2023/01/28 15:37:09;;;;;;;516.60;140.70;;;;;;;2.03;69.96;101272.05;682300;1260;139021;-80
2023/01/28 15:52:13;;;;;;;;;;;;;;;1.87;68.31;101257.27;681994;1264;139279;-81
2023/01/28 16:07:18;;;;;;;41.90;14.40;;;;;;;1.73;67.53;101259.84;682143;1264;125410;-81
2023/01/28 16:22:32;;;;;;;96.90;43.20;;;;;;;1.67;67.22;101254.36;682073;1264;138959;-81
2023/01/28 16:37:35;;;;;;;96.30;40.30;;;;;;;1.70;67.27;101279.60;681903;1264;139201;-81
2023/01/28 16:52:45;;;;;;;36.70;16.70;;;;;;;1.55;67.07;101296.36;681722;1264;139982;-81
2023/01/28 17:07:49;;;;;;;101.40;38.20;;;;;;;1.64;66.97;101301.39;682055;1264;139635;-81
2023/01/28 17:22:53;;;;;;;52.20;22.60;;;;;;;1.75;67.38;101306.67;682103;1262;139477;-81
2023/01/28 17:37:56;;;;;;;32.60;14.10;;;;;;;1.62;67.64;101299.22;681997;1264;139621;-81
2023/01/28 17:53:00;;;;;;;41.20;18.00;;;;;;;1.53;67.09;101283.98;682246;1264;138907;-82
2023/01/28 18:08:03;;;;;;;31.10;14.70;;;;;;;1.46;68.06;101276.64;682117;1264;139321;-82
2023/01/28 18:23:10;;;;;;;41.20;17.60;;;;;;;1.45;68.28;101265.47;682216;1262;139152;-82
2023/01/28 18:38:17;;;;;;;30.40;14.70;;;;;;;1.39;68.50;101292.23;681963;1266;139183;-82
2023/01/28 18:53:25;;;;;;;28.00;12.10;;;;;;;1.29;68.98;101292.54;682102;1265;138885;-81
2023/01/28 19:08:30;;;;;;;20.30;9.70;;;;;;;1.21;69.39;101297.63;682172;1265;139363;-82
2023/01/28 19:23:36;;;;;;;19.10;9.70;;;;;;;1.13;69.36;101281.02;682342;1262;139054;-82
2023/01/28 19:38:56;;;;;;;18.00;9.00;;;;;;;0.97;69.64;101278.08;682211;1264;140207;-82
2023/01/28 19:53:59;;;;;;;20.70;10.50;;;;;;;0.81;69.99;101292.88;681834;1264;139004;-82
2023/01/28 20:09:06;;;;;;;30.10;14.10;;;;;;;0.79;70.67;101277.08;682393;1263;139923;-81
2023/01/28 20:24:12;;;;;;;23.40;11.70;;;;;;;0.80;70.62;101270.17;682055;1266;139145;-83
2023/01/28 20:39:16;;;;;;;27.70;13.20;;;;;;;0.82;70.38;101250.45;682193;1263;140239;-82
2023/01/28 20:54:20;;;;;;;24.10;12.10;;;;;;;0.82;70.91;101245.48;682025;1266;139213;-82
2023/01/28 21:09:24;;;;;;;25.30;12.50;;;;;;;0.92;71.05;101245.14;682183;1260;139208;-82
2023/01/28 21:24:30;;;;;;;36.10;15.40;;;;;;;1.02;71.14;101238.83;682160;1263;170417;-83
2023/01/28 21:39:37;;;;;;;30.90;13.40;;;;;;;0.94;71.79;101242.34;682380;1260;139694;-80
2023/01/28 21:54:41;;;;;;;39.30;15.10;;;;;;;0.95;72.65;101223.54;682124;1261;139342;-82
2023/01/28 22:09:46;;;;;;;29.70;13.60;;;;;;;1.00;72.42;101228.18;682404;1261;139791;-81
2023/01/28 22:24:50;;;;;;;36.40;13.80;;;;;;;0.99;73.42;101219.23;682306;1260;140137;-81
2023/01/28 22:39:53;;;;;;;28.20;14.60;;;;;;;1.06;74.09;101215.09;682375;1264;139406;-81
2023/01/28 22:54:58;;;;;;;28.70;13.60;;;;;;;1.12;74.53;101208.84;682193;1265;139471;-83
2023/01/28 23:10:02;;;;;;;29.20;14.20;;;;;;;1.01;75.04;101193.69;682477;1264;139164;-82
2023/01/28 23:25:06;;;;;;;28.40;13.70;;;;;;;0.92;76.07;101167.66;682235;1264;139581;-83
2023/01/28 23:40:11;;;;;;;30.40;13.80;;;;;;;0.97;77.05;101135.43;682189;1264;139226;-83
2023/01/28 23:55:14;;;;;;;35.00;15.20;;;;;;;1.06;77.42;101109.11;681937;1267;139642;-82
